sensor_id;sensor_type;location;lat;lon;timestamp;P1;durP1;ratioP1;P2;durP2;ratioP2
59685;SDS011;45554;51.096;16.976;2022-10-18T01:04:38;10.60;;;7.10;;
59685;SDS011;45554;51.096;16.976;2022-10-18T01:15:57;11.80;;;6.50;;
59685;SDS011;45554;51.096;16.976;2022-10-18T01:18:31;11.80;;;7.50;;
59685;SDS011;45554;51.096;16.976;2022-10-18T01:29:36;12.00;;;6.30;;
59685;SDS011;45554;51.096;16.976;2022-10-18T01:32:17;11.30;;;6.90;;
59685;SDS011;45554;51.096;16.976;2022-10-18T01:34:48;11.10;;;6.70;;
59685;SDS011;45554;51.096;16.976;2022-10-18T01:37:21;11.10;;;6.90;;
59685;SDS011;45554;51.096;16.976;2022-10-18T01:39:49;11.50;;;7.50;;
59685;SDS011;45554;51.096;16.976;2022-10-18T01:42:22;9.80;;;6.60;;
59685;SDS011;45554;51.096;16.976;2022-10-18T01:44:51;15.30;;;7.50;;
59685;SDS011;45554;51.096;16.976;2022-10-18T01:47:19;11.20;;;7.00;;
59685;SDS011;45554;51.096;16.976;2022-10-18T01:49:48;10.70;;;6.80;;
59685;SDS011;45554;51.096;16.976;2022-10-18T01:52:16;12.50;;;7.20;;
59685;SDS011;45554;51.096;16.976;2022-10-18T01:54:44;13.40;;;6.70;;
59685;SDS011;45554;51.096;16.976;2022-10-18T02:00:09;10.90;;;6.50;;
59685;SDS011;45554;51.096;16.976;2022-10-18T02:03:03;12.60;;;7.10;;
59685;SDS011;45554;51.096;16.976;2022-10-18T02:05:37;10.70;;;6.40;;
59685;SDS011;45554;51.096;16.976;2022-10-18T02:11:00;12.50;;;6.70;;
59685;SDS011;45554;51.096;16.976;2022-10-18T02:13:34;11.00;;;6.60;;
59685;SDS011;45554;51.096;16.976;2022-10-18T02:16:06;11.40;;;6.80;;
59685;SDS011;45554;51.096;16.976;2022-10-18T02:18:40;10.50;;;6.40;;
59685;SDS011;45554;51.096;16.976;2022-10-18T02:21:14;12.20;;;6.70;;
59685;SDS011;45554;51.096;16.976;2022-10-18T02:23:45;10.70;;;6.30;;
59685;SDS011;45554;51.096;16.976;2022-10-18T02:26:13;10.20;;;7.20;;
59685;SDS011;45554;51.096;16.976;2022-10-18T02:28:42;12.00;;;6.80;;
59685;SDS011;45554;51.096;16.976;2022-10-18T02:31:19;11.90;;;6.80;;
59685;SDS011;45554;51.096;16.976;2022-10-18T02:33:57;14.10;;;7.90;;
59685;SDS011;45554;51.096;16.976;2022-10-18T02:36:57;16.20;;;7.80;;
59685;SDS011;45554;51.096;16.976;2022-10-18T02:42:04;14.30;;;8.10;;
59685;SDS011;45554;51.096;16.976;2022-10-18T02:44:35;11.10;;;7.30;;
59685;SDS011;45554;51.096;16.976;2022-10-18T02:47:05;14.30;;;7.50;;
59685;SDS011;45554;51.096;16.976;2022-10-18T02:49:33;12.70;;;8.20;;
59685;SDS011;45554;51.096;16.976;2022-10-18T02:52:01;13.70;;;7.90;;
59685;SDS011;45554;51.096;16.976;2022-10-18T02:54:29;12.00;;;6.50;;
59685;SDS011;45554;51.096;16.976;2022-10-18T02:56:57;11.90;;;7.40;;
59685;SDS011;45554;51.096;16.976;2022-10-18T02:59:25;12.30;;;7.10;;
59685;SDS011;45554;51.096;16.976;2022-10-18T03:01:53;15.60;;;8.00;;
59685;SDS011;45554;51.096;16.976;2022-10-18T03:04:21;11.90;;;7.20;;
59685;SDS011;45554;51.096;16.976;2022-10-18T03:06:48;13.40;;;7.40;;
59685;SDS011;45554;51.096;16.976;2022-10-18T03:09:16;15.30;;;7.30;;
59685;SDS011;45554;51.096;16.976;2022-10-18T03:11:44;14.00;;;7.80;;
59685;SDS011;45554;51.096;16.976;2022-10-18T03:14:11;11.90;;;7.80;;
59685;SDS011;45554;51.096;16.976;2022-10-18T03:16:39;13.20;;;8.00;;
59685;SDS011;45554;51.096;16.976;2022-10-18T03:19:07;14.00;;;7.40;;
59685;SDS011;45554;51.096;16.976;2022-10-18T03:21:35;16.00;;;7.90;;
59685;SDS011;45554;51.096;16.976;2022-10-18T03:24:03;14.80;;;8.10;;
59685;SDS011;45554;51.096;16.976;2022-10-18T03:26:31;12.40;;;7.40;;
59685;SDS011;45554;51.096;16.976;2022-10-18T03:28:59;13.00;;;7.40;;
59685;SDS011;45554;51.096;16.976;2022-10-18T03:31:27;14.90;;;7.80;;
59685;SDS011;45554;51.096;16.976;2022-10-18T03:33:54;13.10;;;7.80;;
59685;SDS011;45554;51.096;16.976;2022-10-18T03:36:22;12.60;;;7.40;;
59685;SDS011;45554;51.096;16.976;2022-10-18T03:38:50;15.90;;;8.10;;
59685;SDS011;45554;51.096;16.976;2022-10-18T03:41:18;16.20;;;7.90;;
59685;SDS011;45554;51.096;16.976;2022-10-18T03:43:47;13.80;;;7.50;;
59685;SDS011;45554;51.096;16.976;2022-10-18T03:46:15;12.90;;;7.70;;
59685;SDS011;45554;51.096;16.976;2022-10-18T03:48:42;17.90;;;8.60;;
59685;SDS011;45554;51.096;16.976;2022-10-18T03:51:10;16.50;;;9.60;;
59685;SDS011;45554;51.096;16.976;2022-10-18T03:53:38;15.80;;;7.70;;
59685;SDS011;45554;51.096;16.976;2022-10-18T03:56:05;14.90;;;8.30;;
59685;SDS011;45554;51.096;16.976;2022-10-18T03:58:34;13.80;;;7.90;;
59685;SDS011;45554;51.096;16.976;2022-10-18T04:01:02;15.90;;;8.70;;
59685;SDS011;45554;51.096;16.976;2022-10-18T04:03:30;17.90;;;9.00;;
59685;SDS011;45554;51.096;16.976;2022-10-18T04:05:58;13.10;;;7.90;;
59685;SDS011;45554;51.096;16.976;2022-10-18T04:10:54;12.70;;;8.00;;
59685;SDS011;45554;51.096;16.976;2022-10-18T04:13:22;19.50;;;9.00;;
59685;SDS011;45554;51.096;16.976;2022-10-18T04:15:50;14.50;;;8.20;;
59685;SDS011;45554;51.096;16.976;2022-10-18T04:18:17;14.40;;;7.70;;
59685;SDS011;45554;51.096;16.976;2022-10-18T04:20:45;13.10;;;8.50;;
59685;SDS011;45554;51.096;16.976;2022-10-18T04:23:13;13.70;;;8.30;;
59685;SDS011;45554;51.096;16.976;2022-10-18T04:25:41;16.40;;;8.60;;
59685;SDS011;45554;51.096;16.976;2022-10-18T04:28:14;14.90;;;8.70;;
59685;SDS011;45554;51.096;16.976;2022-10-18T04:30:42;15.20;;;8.50;;
59685;SDS011;45554;51.096;16.976;2022-10-18T04:33:09;14.40;;;7.70;;
59685;SDS011;45554;51.096;16.976;2022-10-18T04:35:37;17.70;;;8.60;;
59685;SDS011;45554;51.096;16.976;2022-10-18T04:38:05;12.60;;;7.90;;
59685;SDS011;45554;51.096;16.976;2022-10-18T04:40:33;16.80;;;8.60;;
59685;SDS011;45554;51.096;16.976;2022-10-18T04:43:01;14.30;;;8.10;;
59685;SDS011;45554;51.096;16.976;2022-10-18T04:45:29;19.90;;;8.50;;
59685;SDS011;45554;51.096;16.976;2022-10-18T04:47:57;14.80;;;8.50;;
59685;SDS011;45554;51.096;16.976;2022-10-18T04:50:24;15.30;;;8.40;;
59685;SDS011;45554;51.096;16.976;2022-10-18T04:52:52;17.30;;;8.60;;
59685;SDS011;45554;51.096;16.976;2022-10-18T04:55:20;16.20;;;8.60;;
59685;SDS011;45554;51.096;16.976;2022-10-18T04:57:48;16.50;;;8.80;;
59685;SDS011;45554;51.096;16.976;2022-10-18T05:00:16;16.70;;;9.70;;
59685;SDS011;45554;51.096;16.976;2022-10-18T05:02:44;16.70;;;9.30;;
59685;SDS011;45554;51.096;16.976;2022-10-18T05:05:12;16.90;;;9.50;;
59685;SDS011;45554;51.096;16.976;2022-10-18T05:07:40;20.20;;;8.60;;
59685;SDS011;45554;51.096;16.976;2022-10-18T05:10:09;17.30;;;9.70;;
59685;SDS011;45554;51.096;16.976;2022-10-18T05:12:36;15.50;;;10.20;;
59685;SDS011;45554;51.096;16.976;2022-10-18T05:15:04;15.50;;;8.60;;
59685;SDS011;45554;51.096;16.976;2022-10-18T05:17:32;13.60;;;8.50;;
59685;SDS011;45554;51.096;16.976;2022-10-18T05:20:00;15.20;;;9.00;;
59685;SDS011;45554;51.096;16.976;2022-10-18T05:22:29;14.80;;;8.80;;
59685;SDS011;45554;51.096;16.976;2022-10-18T05:24:57;15.80;;;9.20;;
59685;SDS011;45554;51.096;16.976;2022-10-18T05:27:25;17.60;;;9.90;;
59685;SDS011;45554;51.096;16.976;2022-10-18T05:29:54;19.20;;;9.00;;
59685;SDS011;45554;51.096;16.976;2022-10-18T05:32:25;18.60;;;8.80;;
59685;SDS011;45554;51.096;16.976;2022-10-18T05:34:52;17.00;;;8.70;;
59685;SDS011;45554;51.096;16.976;2022-10-18T05:37:20;18.00;;;9.40;;
59685;SDS011;45554;51.096;16.976;2022-10-18T05:39:54;19.60;;;9.50;;
59685;SDS011;45554;51.096;16.976;2022-10-18T05:42:22;20.70;;;9.80;;
59685;SDS011;45554;51.096;16.976;2022-10-18T05:44:50;19.90;;;9.80;;
59685;SDS011;45554;51.096;16.976;2022-10-18T05:47:18;22.60;;;11.50;;
59685;SDS011;45554;51.096;16.976;2022-10-18T05:49:46;17.40;;;10.50;;
59685;SDS011;45554;51.096;16.976;2022-10-18T05:52:14;16.40;;;9.80;;
59685;SDS011;45554;51.096;16.976;2022-10-18T05:54:43;14.90;;;9.50;;
59685;SDS011;45554;51.096;16.976;2022-10-18T05:57:11;16.60;;;9.30;;
59685;SDS011;45554;51.096;16.976;2022-10-18T05:59:39;16.60;;;9.60;;
59685;SDS011;45554;51.096;16.976;2022-10-18T06:02:08;15.70;;;9.80;;
59685;SDS011;45554;51.096;16.976;2022-10-18T06:04:37;15.20;;;9.20;;
59685;SDS011;45554;51.096;16.976;2022-10-18T06:07:11;14.40;;;9.30;;
59685;SDS011;45554;51.096;16.976;2022-10-18T06:09:39;17.50;;;9.50;;
59685;SDS011;45554;51.096;16.976;2022-10-18T06:12:07;14.00;;;9.30;;
59685;SDS011;45554;51.096;16.976;2022-10-18T06:14:36;17.00;;;9.00;;
59685;SDS011;45554;51.096;16.976;2022-10-18T06:17:03;15.50;;;8.70;;
59685;SDS011;45554;51.096;16.976;2022-10-18T06:19:31;18.80;;;10.20;;
59685;SDS011;45554;51.096;16.976;2022-10-18T06:22:00;15.70;;;9.40;;
59685;SDS011;45554;51.096;16.976;2022-10-18T06:24:28;14.90;;;9.30;;
59685;SDS011;45554;51.096;16.976;2022-10-18T06:26:56;16.50;;;9.40;;
59685;SDS011;45554;51.096;16.976;2022-10-18T06:29:24;17.70;;;9.60;;
59685;SDS011;45554;51.096;16.976;2022-10-18T06:31:52;13.30;;;9.60;;
59685;SDS011;45554;51.096;16.976;2022-10-18T06:34:20;18.00;;;11.30;;
59685;SDS011;45554;51.096;16.976;2022-10-18T06:36:48;18.20;;;9.90;;
59685;SDS011;45554;51.096;16.976;2022-10-18T06:39:19;17.90;;;10.80;;
59685;SDS011;45554;51.096;16.976;2022-10-18T06:41:47;16.20;;;10.40;;
59685;SDS011;45554;51.096;16.976;2022-10-18T06:44:20;20.10;;;10.40;;
59685;SDS011;45554;51.096;16.976;2022-10-18T06:46:48;17.60;;;10.10;;
59685;SDS011;45554;51.096;16.976;2022-10-18T06:49:18;19.20;;;8.70;;
59685;SDS011;45554;51.096;16.976;2022-10-18T06:51:46;14.10;;;9.10;;
59685;SDS011;45554;51.096;16.976;2022-10-18T06:54:15;16.10;;;9.10;;
59685;SDS011;45554;51.096;16.976;2022-10-18T06:56:45;18.20;;;9.20;;
59685;SDS011;45554;51.096;16.976;2022-10-18T06:59:13;15.40;;;9.10;;
59685;SDS011;45554;51.096;16.976;2022-10-18T07:01:41;12.90;;;8.80;;
59685;SDS011;45554;51.096;16.976;2022-10-18T07:04:09;17.80;;;9.10;;
59685;SDS011;45554;51.096;16.976;2022-10-18T07:06:37;17.10;;;9.40;;
59685;SDS011;45554;51.096;16.976;2022-10-18T07:09:05;15.90;;;9.20;;
59685;SDS011;45554;51.096;16.976;2022-10-18T07:11:33;15.60;;;9.00;;
59685;SDS011;45554;51.096;16.976;2022-10-18T07:14:00;15.90;;;9.60;;
59685;SDS011;45554;51.096;16.976;2022-10-18T07:16:31;15.10;;;9.40;;
59685;SDS011;45554;51.096;16.976;2022-10-18T07:18:59;12.70;;;9.50;;
59685;SDS011;45554;51.096;16.976;2022-10-18T07:21:27;15.40;;;9.10;;
59685;SDS011;45554;51.096;16.976;2022-10-18T07:23:55;18.80;;;9.70;;
59685;SDS011;45554;51.096;16.976;2022-10-18T07:26:29;19.20;;;9.60;;
59685;SDS011;45554;51.096;16.976;2022-10-18T07:29:00;15.60;;;9.40;;
59685;SDS011;45554;51.096;16.976;2022-10-18T07:31:35;18.00;;;9.40;;
59685;SDS011;45554;51.096;16.976;2022-10-18T07:34:05;13.50;;;9.00;;
59685;SDS011;45554;51.096;16.976;2022-10-18T07:36:34;18.90;;;8.90;;
59685;SDS011;45554;51.096;16.976;2022-10-18T07:39:02;15.30;;;8.70;;
59685;SDS011;45554;51.096;16.976;2022-10-18T07:41:30;19.80;;;10.30;;
59685;SDS011;45554;51.096;16.976;2022-10-18T07:44:00;16.80;;;9.20;;
59685;SDS011;45554;51.096;16.976;2022-10-18T07:46:30;18.90;;;9.30;;
59685;SDS011;45554;51.096;16.976;2022-10-18T07:48:58;16.60;;;9.80;;
59685;SDS011;45554;51.096;16.976;2022-10-18T07:51:26;15.30;;;9.30;;
59685;SDS011;45554;51.096;16.976;2022-10-18T07:53:54;20.40;;;9.00;;
59685;SDS011;45554;51.096;16.976;2022-10-18T07:56:22;15.90;;;9.60;;
59685;SDS011;45554;51.096;16.976;2022-10-18T07:58:50;17.60;;;9.70;;
59685;SDS011;45554;51.096;16.976;2022-10-18T08:01:20;15.90;;;8.70;;
59685;SDS011;45554;51.096;16.976;2022-10-18T08:03:49;15.60;;;8.80;;
59685;SDS011;45554;51.096;16.976;2022-10-18T08:06:18;13.20;;;8.50;;
59685;SDS011;45554;51.096;16.976;2022-10-18T08:11:16;15.20;;;8.60;;
59685;SDS011;45554;51.096;16.976;2022-10-18T08:13:46;12.50;;;9.00;;
59685;SDS011;45554;51.096;16.976;2022-10-18T08:16:15;15.70;;;8.50;;
59685;SDS011;45554;51.096;16.976;2022-10-18T08:18:45;16.20;;;8.80;;
59685;SDS011;45554;51.096;16.976;2022-10-18T08:21:15;14.50;;;8.80;;
59685;SDS011;45554;51.096;16.976;2022-10-18T08:23:47;12.50;;;8.20;;
59685;SDS011;45554;51.096;16.976;2022-10-18T08:26:19;14.90;;;7.90;;
59685;SDS011;45554;51.096;16.976;2022-10-18T08:28:51;14.40;;;8.30;;
59685;SDS011;45554;51.096;16.976;2022-10-18T08:31:36;13.00;;;7.90;;
59685;SDS011;45554;51.096;16.976;2022-10-18T08:34:04;16.40;;;8.30;;
59685;SDS011;45554;51.096;16.976;2022-10-18T08:36:32;13.20;;;7.90;;
59685;SDS011;45554;51.096;16.976;2022-10-18T08:39:00;12.20;;;7.70;;
59685;SDS011;45554;51.096;16.976;2022-10-18T08:44:25;13.60;;;7.60;;
59685;SDS011;45554;51.096;16.976;2022-10-18T08:46:57;13.90;;;8.00;;
59685;SDS011;45554;51.096;16.976;2022-10-18T08:55:37;14.00;;;8.00;;
59685;SDS011;45554;51.096;16.976;2022-10-18T08:58:22;15.70;;;8.10;;
59685;SDS011;45554;51.096;16.976;2022-10-18T09:06:29;15.00;;;8.40;;
59685;SDS011;45554;51.096;16.976;2022-10-18T09:12:24;16.40;;;9.10;;
59685;SDS011;45554;51.096;16.976;2022-10-18T09:20:59;14.30;;;7.90;;
59685;SDS011;45554;51.096;16.976;2022-10-18T09:26:38;15.00;;;8.50;;
59685;SDS011;45554;51.096;16.976;2022-10-18T09:29:22;13.70;;;8.30;;
59685;SDS011;45554;51.096;16.976;2022-10-18T09:32:24;12.00;;;7.70;;
59685;SDS011;45554;51.096;16.976;2022-10-18T09:35:13;9.40;;;7.10;;
59685;SDS011;45554;51.096;16.976;2022-10-18T09:37:45;13.90;;;8.00;;
59685;SDS011;45554;51.096;16.976;2022-10-18T09:42:54;14.40;;;7.90;;
59685;SDS011;45554;51.096;16.976;2022-10-18T09:45:45;13.60;;;7.50;;
59685;SDS011;45554;51.096;16.976;2022-10-18T09:48:17;26.20;;;15.00;;
59685;SDS011;45554;51.096;16.976;2022-10-18T09:51:02;12.60;;;7.60;;
59685;SDS011;45554;51.096;16.976;2022-10-18T09:56:29;13.00;;;8.30;;
59685;SDS011;45554;51.096;16.976;2022-10-18T09:59:10;13.40;;;7.80;;
59685;SDS011;45554;51.096;16.976;2022-10-18T10:01:54;14.20;;;7.80;;
59685;SDS011;45554;51.096;16.976;2022-10-18T10:04:22;10.70;;;8.00;;
59685;SDS011;45554;51.096;16.976;2022-10-18T10:06:53;16.30;;;8.50;;
59685;SDS011;45554;51.096;16.976;2022-10-18T10:09:45;13.70;;;8.20;;
59685;SDS011;45554;51.096;16.976;2022-10-18T10:15:05;11.80;;;7.30;;
59685;SDS011;45554;51.096;16.976;2022-10-18T10:17:42;13.70;;;8.70;;
59685;SDS011;45554;51.096;16.976;2022-10-18T10:20:18;13.40;;;8.20;;
59685;SDS011;45554;51.096;16.976;2022-10-18T10:22:48;12.80;;;8.30;;
59685;SDS011;45554;51.096;16.976;2022-10-18T10:25:39;12.40;;;7.40;;
59685;SDS011;45554;51.096;16.976;2022-10-18T10:28:14;14.00;;;8.10;;
59685;SDS011;45554;51.096;16.976;2022-10-18T10:30:48;13.10;;;8.60;;
59685;SDS011;45554;51.096;16.976;2022-10-18T10:33:33;15.30;;;8.30;;
59685;SDS011;45554;51.096;16.976;2022-10-18T10:36:04;14.10;;;8.50;;
59685;SDS011;45554;51.096;16.976;2022-10-18T10:38:45;14.00;;;8.40;;
59685;SDS011;45554;51.096;16.976;2022-10-18T10:41:39;14.20;;;8.30;;
59685;SDS011;45554;51.096;16.976;2022-10-18T10:44:15;15.80;;;8.50;;
59685;SDS011;45554;51.096;16.976;2022-10-18T10:46:44;11.70;;;8.40;;
59685;SDS011;45554;51.096;16.976;2022-10-18T10:49:24;14.40;;;8.40;;
59685;SDS011;45554;51.096;16.976;2022-10-18T10:52:17;12.70;;;8.20;;
59685;SDS011;45554;51.096;16.976;2022-10-18T10:57:43;16.00;;;8.30;;
59685;SDS011;45554;51.096;16.976;2022-10-18T11:03:20;13.30;;;7.90;;
59685;SDS011;45554;51.096;16.976;2022-10-18T11:05:56;14.50;;;7.80;;
59685;SDS011;45554;51.096;16.976;2022-10-18T11:08:31;12.70;;;7.70;;
59685;SDS011;45554;51.096;16.976;2022-10-18T11:11:12;12.30;;;8.00;;
59685;SDS011;45554;51.096;16.976;2022-10-18T11:16:58;15.30;;;7.80;;
59685;SDS011;45554;51.096;16.976;2022-10-18T11:19:41;14.40;;;8.50;;
59685;SDS011;45554;51.096;16.976;2022-10-18T11:22:19;12.90;;;7.80;;
59685;SDS011;45554;51.096;16.976;2022-10-18T11:24:51;12.60;;;7.90;;
59685;SDS011;45554;51.096;16.976;2022-10-18T11:30:17;11.60;;;7.60;;
59685;SDS011;45554;51.096;16.976;2022-10-18T11:33:12;12.30;;;7.40;;
59685;SDS011;45554;51.096;16.976;2022-10-18T11:44:12;14.00;;;7.40;;
59685;SDS011;45554;51.096;16.976;2022-10-18T11:49:44;10.20;;;7.00;;
59685;SDS011;45554;51.096;16.976;2022-10-18T12:00:45;13.00;;;7.20;;
59685;SDS011;45554;51.096;16.976;2022-10-18T12:03:20;12.60;;;8.00;;
59685;SDS011;45554;51.096;16.976;2022-10-18T12:05:54;11.30;;;7.80;;
59685;SDS011;45554;51.096;16.976;2022-10-18T12:08:31;12.10;;;7.60;;
59685;SDS011;45554;51.096;16.976;2022-10-18T12:11:07;13.80;;;8.10;;
59685;SDS011;45554;51.096;16.976;2022-10-18T12:13:47;11.80;;;7.60;;
59685;SDS011;45554;51.096;16.976;2022-10-18T12:16:20;12.20;;;7.70;;
59685;SDS011;45554;51.096;16.976;2022-10-18T12:19:28;10.90;;;7.20;;
59685;SDS011;45554;51.096;16.976;2022-10-18T12:24:56;14.50;;;7.20;;
59685;SDS011;45554;51.096;16.976;2022-10-18T12:27:27;10.80;;;7.40;;
59685;SDS011;45554;51.096;16.976;2022-10-18T12:30:08;14.80;;;8.00;;
59685;SDS011;45554;51.096;16.976;2022-10-18T12:32:46;11.80;;;7.80;;
59685;SDS011;45554;51.096;16.976;2022-10-18T12:35:46;19.00;;;6.90;;
59685;SDS011;45554;51.096;16.976;2022-10-18T12:38:35;12.20;;;7.20;;
59685;SDS011;45554;51.096;16.976;2022-10-18T12:41:10;14.10;;;8.00;;
59685;SDS011;45554;51.096;16.976;2022-10-18T12:43:52;13.40;;;7.70;;
59685;SDS011;45554;51.096;16.976;2022-10-18T12:49:29;15.60;;;7.40;;
59685;SDS011;45554;51.096;16.976;2022-10-18T12:52:00;10.80;;;7.60;;
59685;SDS011;45554;51.096;16.976;2022-10-18T12:54:31;11.60;;;7.80;;
59685;SDS011;45554;51.096;16.976;2022-10-18T12:57:03;11.70;;;7.30;;
59685;SDS011;45554;51.096;16.976;2022-10-18T13:04:34;13.00;;;7.30;;
59685;SDS011;45554;51.096;16.976;2022-10-18T13:09:37;14.10;;;8.10;;
59685;SDS011;45554;51.096;16.976;2022-10-18T13:20:18;13.80;;;7.90;;
59685;SDS011;45554;51.096;16.976;2022-10-18T13:23:00;12.60;;;7.60;;
59685;SDS011;45554;51.096;16.976;2022-10-18T13:28:34;11.80;;;7.70;;
59685;SDS011;45554;51.096;16.976;2022-10-18T13:31:38;12.10;;;7.30;;
59685;SDS011;45554;51.096;16.976;2022-10-18T13:36:59;11.50;;;7.10;;
59685;SDS011;45554;51.096;16.976;2022-10-18T13:39:29;12.10;;;7.70;;
59685;SDS011;45554;51.096;16.976;2022-10-18T14:01:29;10.80;;;7.70;;
59685;SDS011;45554;51.096;16.976;2022-10-18T14:07:04;14.30;;;8.80;;
59685;SDS011;45554;51.096;16.976;2022-10-18T14:09:35;16.50;;;9.00;;
59685;SDS011;45554;51.096;16.976;2022-10-18T14:12:24;15.60;;;9.40;;
59685;SDS011;45554;51.096;16.976;2022-10-18T14:14:57;16.30;;;11.30;;
59685;SDS011;45554;51.096;16.976;2022-10-18T14:17:38;18.80;;;11.90;;
59685;SDS011;45554;51.096;16.976;2022-10-18T14:25:38;21.20;;;11.90;;
59685;SDS011;45554;51.096;16.976;2022-10-18T14:30:54;15.60;;;10.30;;
59685;SDS011;45554;51.096;16.976;2022-10-18T14:36:07;11.60;;;7.00;;
59685;SDS011;45554;51.096;16.976;2022-10-18T14:43:42;9.40;;;6.30;;
59685;SDS011;45554;51.096;16.976;2022-10-18T14:48:57;9.70;;;6.30;;
59685;SDS011;45554;51.096;16.976;2022-10-18T14:51:28;10.60;;;6.60;;
59685;SDS011;45554;51.096;16.976;2022-10-18T14:54:00;10.40;;;6.60;;
59685;SDS011;45554;51.096;16.976;2022-10-18T14:56:30;9.00;;;4.80;;
59685;SDS011;45554;51.096;16.976;2022-10-18T14:59:04;7.30;;;3.90;;
59685;SDS011;45554;51.096;16.976;2022-10-18T15:01:39;6.30;;;3.10;;
59685;SDS011;45554;51.096;16.976;2022-10-18T15:04:08;5.70;;;3.30;;
59685;SDS011;45554;51.096;16.976;2022-10-18T15:06:41;6.90;;;2.80;;
59685;SDS011;45554;51.096;16.976;2022-10-18T15:09:11;4.40;;;2.30;;
59685;SDS011;45554;51.096;16.976;2022-10-18T15:11:42;4.60;;;2.60;;
59685;SDS011;45554;51.096;16.976;2022-10-18T15:14:12;5.50;;;2.60;;
59685;SDS011;45554;51.096;16.976;2022-10-18T15:16:42;4.40;;;2.20;;
59685;SDS011;45554;51.096;16.976;2022-10-18T15:24:45;6.00;;;2.80;;
59685;SDS011;45554;51.096;16.976;2022-10-18T15:27:58;7.20;;;3.40;;
59685;SDS011;45554;51.096;16.976;2022-10-18T15:35:35;3.80;;;2.10;;
59685;SDS011;45554;51.096;16.976;2022-10-18T15:40:47;4.40;;;1.80;;
59685;SDS011;45554;51.096;16.976;2022-10-18T15:45:50;4.20;;;1.90;;
59685;SDS011;45554;51.096;16.976;2022-10-18T15:50:54;4.10;;;1.80;;
59685;SDS011;45554;51.096;16.976;2022-10-18T15:53:30;3.40;;;1.90;;
59685;SDS011;45554;51.096;16.976;2022-10-18T15:56:06;5.20;;;2.00;;
59685;SDS011;45554;51.096;16.976;2022-10-18T15:58:40;3.10;;;1.60;;
59685;SDS011;45554;51.096;16.976;2022-10-18T16:01:21;5.40;;;1.70;;
59685;SDS011;45554;51.096;16.976;2022-10-18T16:03:50;3.10;;;1.70;;
59685;SDS011;45554;51.096;16.976;2022-10-18T16:06:19;3.70;;;1.80;;
59685;SDS011;45554;51.096;16.976;2022-10-18T16:08:48;5.60;;;2.40;;
59685;SDS011;45554;51.096;16.976;2022-10-18T16:11:19;28.60;;;12.80;;
59685;SDS011;45554;51.096;16.976;2022-10-18T16:13:50;23.30;;;12.70;;
59685;SDS011;45554;51.096;16.976;2022-10-18T16:16:26;9.40;;;4.20;;
59685;SDS011;45554;51.096;16.976;2022-10-18T16:18:55;6.40;;;2.90;;
59685;SDS011;45554;51.096;16.976;2022-10-18T16:21:28;5.90;;;2.60;;
59685;SDS011;45554;51.096;16.976;2022-10-18T16:23:57;6.60;;;2.50;;
59685;SDS011;45554;51.096;16.976;2022-10-18T16:26:26;6.60;;;2.90;;
59685;SDS011;45554;51.096;16.976;2022-10-18T16:28:55;6.50;;;3.10;;
59685;SDS011;45554;51.096;16.976;2022-10-18T16:31:26;5.90;;;2.80;;
59685;SDS011;45554;51.096;16.976;2022-10-18T16:33:55;5.50;;;2.90;;
59685;SDS011;45554;51.096;16.976;2022-10-18T16:36:24;5.80;;;2.80;;
59685;SDS011;45554;51.096;16.976;2022-10-18T16:38:59;5.60;;;3.00;;
59685;SDS011;45554;51.096;16.976;2022-10-18T16:41:29;5.10;;;2.60;;
59685;SDS011;45554;51.096;16.976;2022-10-18T16:43:57;7.10;;;3.80;;
59685;SDS011;45554;51.096;16.976;2022-10-18T16:46:27;7.60;;;3.90;;
59685;SDS011;45554;51.096;16.976;2022-10-18T16:48:56;8.20;;;5.00;;
59685;SDS011;45554;51.096;16.976;2022-10-18T16:51:24;10.60;;;5.00;;
59685;SDS011;45554;51.096;16.976;2022-10-18T16:53:52;11.60;;;5.80;;
59685;SDS011;45554;51.096;16.976;2022-10-18T16:58:52;12.70;;;7.00;;
59685;SDS011;45554;51.096;16.976;2022-10-18T17:01:20;11.10;;;6.60;;
59685;SDS011;45554;51.096;16.976;2022-10-18T17:03:50;12.10;;;7.30;;
59685;SDS011;45554;51.096;16.976;2022-10-18T17:06:20;9.60;;;6.50;;
59685;SDS011;45554;51.096;16.976;2022-10-18T17:08:52;9.00;;;6.00;;
59685;SDS011;45554;51.096;16.976;2022-10-18T17:11:22;10.90;;;6.30;;
59685;SDS011;45554;51.096;16.976;2022-10-18T17:13:51;9.80;;;6.20;;
59685;SDS011;45554;51.096;16.976;2022-10-18T17:19:01;12.80;;;9.80;;
59685;SDS011;45554;51.096;16.976;2022-10-18T17:21:31;12.70;;;8.90;;
59685;SDS011;45554;51.096;16.976;2022-10-18T17:23:59;11.10;;;7.60;;
59685;SDS011;45554;51.096;16.976;2022-10-18T17:26:29;9.50;;;5.60;;
59685;SDS011;45554;51.096;16.976;2022-10-18T17:28:58;9.60;;;5.50;;
59685;SDS011;45554;51.096;16.976;2022-10-18T17:31:31;7.30;;;4.40;;
59685;SDS011;45554;51.096;16.976;2022-10-18T17:34:00;8.50;;;4.40;;
59685;SDS011;45554;51.096;16.976;2022-10-18T17:36:29;9.80;;;5.00;;
59685;SDS011;45554;51.096;16.976;2022-10-18T17:38:57;8.50;;;5.20;;
59685;SDS011;45554;51.096;16.976;2022-10-18T17:41:26;10.70;;;5.50;;
59685;SDS011;45554;51.096;16.976;2022-10-18T17:43:54;10.00;;;5.90;;
59685;SDS011;45554;51.096;16.976;2022-10-18T17:46:21;10.70;;;7.00;;
59685;SDS011;45554;51.096;16.976;2022-10-18T17:48:50;11.50;;;7.10;;
59685;SDS011;45554;51.096;16.976;2022-10-18T17:51:18;11.30;;;6.90;;
59685;SDS011;45554;51.096;16.976;2022-10-18T17:53:45;9.20;;;6.10;;
59685;SDS011;45554;51.096;16.976;2022-10-18T17:56:13;9.70;;;5.70;;
59685;SDS011;45554;51.096;16.976;2022-10-18T17:58:42;8.60;;;5.40;;
59685;SDS011;45554;51.096;16.976;2022-10-18T18:03:45;9.60;;;6.40;;
59685;SDS011;45554;51.096;16.976;2022-10-18T18:06:20;9.30;;;5.80;;
59685;SDS011;45554;51.096;16.976;2022-10-18T18:08:57;10.70;;;6.40;;
59685;SDS011;45554;51.096;16.976;2022-10-18T18:11:27;10.50;;;6.40;;
59685;SDS011;45554;51.096;16.976;2022-10-18T18:13:55;11.60;;;7.70;;
59685;SDS011;45554;51.096;16.976;2022-10-18T18:16:25;11.30;;;8.30;;
59685;SDS011;45554;51.096;16.976;2022-10-18T18:18:55;11.50;;;8.30;;
59685;SDS011;45554;51.096;16.976;2022-10-18T18:21:24;10.70;;;7.70;;
59685;SDS011;45554;51.096;16.976;2022-10-18T18:23:53;11.40;;;8.40;;
59685;SDS011;45554;51.096;16.976;2022-10-18T18:26:21;13.90;;;10.70;;
59685;SDS011;45554;51.096;16.976;2022-10-18T18:28:50;13.70;;;10.00;;
59685;SDS011;45554;51.096;16.976;2022-10-18T18:31:19;16.40;;;12.20;;
59685;SDS011;45554;51.096;16.976;2022-10-18T18:33:53;17.60;;;13.50;;
59685;SDS011;45554;51.096;16.976;2022-10-18T18:36:22;17.60;;;13.30;;
59685;SDS011;45554;51.096;16.976;2022-10-18T18:38:55;17.70;;;13.40;;
59685;SDS011;45554;51.096;16.976;2022-10-18T18:43:53;16.00;;;13.50;;
59685;SDS011;45554;51.096;16.976;2022-10-18T18:46:25;17.60;;;13.80;;
59685;SDS011;45554;51.096;16.976;2022-10-18T18:48:55;17.30;;;12.90;;
59685;SDS011;45554;51.096;16.976;2022-10-18T18:51:23;14.50;;;11.40;;
59685;SDS011;45554;51.096;16.976;2022-10-18T18:53:52;15.70;;;10.60;;
59685;SDS011;45554;51.096;16.976;2022-10-18T18:56:20;12.80;;;8.70;;
59685;SDS011;45554;51.096;16.976;2022-10-18T18:58:50;12.00;;;7.90;;
59685;SDS011;45554;51.096;16.976;2022-10-18T19:01:20;14.20;;;8.10;;
59685;SDS011;45554;51.096;16.976;2022-10-18T19:03:50;12.80;;;9.00;;
59685;SDS011;45554;51.096;16.976;2022-10-18T19:06:21;10.90;;;7.60;;
59685;SDS011;45554;51.096;16.976;2022-10-18T19:08:54;10.90;;;7.50;;